createdAt,value
2023-03-02T00:01:23.809Z,5.56
2023-03-02T00:03:52.258Z,5.58
2023-03-02T00:06:20.433Z,5.53
2023-03-02T00:08:48.697Z,5.44
2023-03-02T00:11:16.787Z,5.40
2023-03-02T00:13:46.458Z,5.34
2023-03-02T00:16:14.471Z,5.41
2023-03-02T00:18:42.698Z,5.41
2023-03-02T00:21:11.258Z,5.40
2023-03-02T00:23:39.572Z,5.34
2023-03-02T00:26:07.857Z,5.27
2023-03-02T00:28:36.173Z,5.40
2023-03-02T00:31:06.876Z,5.43
2023-03-02T00:33:35.619Z,5.25
2023-03-02T00:36:04.360Z,5.33
2023-03-02T00:38:32.684Z,5.30
2023-03-02T00:41:00.683Z,5.21
2023-03-02T00:43:29.795Z,5.30
2023-03-02T00:45:58.909Z,5.27
2023-03-02T00:48:28.479Z,5.26
2023-03-02T00:50:56.478Z,5.33
2023-03-02T00:53:24.750Z,5.35
2023-03-02T00:55:56.695Z,5.30
2023-03-02T00:58:26.877Z,5.22
2023-03-02T01:00:56.281Z,5.16
2023-03-02T01:03:24.964Z,5.22
2023-03-02T01:05:55.281Z,5.16
2023-03-02T01:08:25.038Z,5.17
2023-03-02T01:10:54.427Z,5.12
2023-03-02T01:13:22.754Z,5.18
2023-03-02T01:15:50.880Z,5.09
2023-03-02T01:18:19.346Z,5.09
2023-03-02T01:20:47.407Z,5.10
2023-03-02T01:23:16.954Z,5.02
2023-03-02T01:25:44.976Z,5.03
2023-03-02T01:28:15.254Z,5.02
2023-03-02T01:30:43.234Z,4.85
2023-03-02T01:33:11.522Z,4.99
2023-03-02T01:35:39.658Z,5.05
2023-03-02T01:38:08.060Z,4.99
2023-03-02T01:40:37.532Z,4.97
2023-03-02T01:43:12.473Z,5.05
2023-03-02T01:45:51.697Z,5.03
2023-03-02T01:48:29.272Z,4.97
2023-03-02T01:50:58.521Z,4.89
2023-03-02T01:53:29.480Z,4.91
2023-03-02T01:55:59.698Z,4.63
2023-03-02T01:58:28.512Z,4.53
2023-03-02T02:00:57.583Z,4.60
2023-03-02T02:03:28.653Z,4.65
2023-03-02T02:06:02.762Z,4.84
2023-03-02T02:08:31.614Z,4.68
2023-03-02T02:11:01.697Z,4.75
2023-03-02T02:13:30.225Z,5.03
2023-03-02T02:15:58.410Z,5.05
2023-03-02T02:18:27.361Z,5.04
2023-03-02T02:20:56.710Z,4.76
2023-03-02T02:23:28.144Z,4.99
2023-03-02T02:26:06.612Z,4.66
2023-03-02T02:28:37.357Z,4.98
2023-03-02T02:31:09.174Z,4.96
2023-03-02T02:33:38.324Z,4.96
2023-03-02T02:36:09.385Z,4.83
2023-03-02T02:38:40.878Z,4.73
2023-03-02T02:41:14.204Z,4.62
2023-03-02T02:43:42.501Z,4.61
2023-03-02T02:46:11.704Z,4.42
2023-03-02T02:48:40.467Z,4.40
2023-03-02T02:51:09.525Z,4.65
2023-03-02T02:53:43.016Z,4.76
2023-03-02T02:56:13.064Z,4.86
2023-03-02T02:58:44.792Z,4.69
2023-03-02T03:01:15.234Z,4.74
2023-03-02T03:03:47.139Z,4.74
2023-03-02T03:06:18.641Z,4.69
2023-03-02T03:08:56.881Z,4.64
2023-03-02T03:11:35.768Z,4.56
2023-03-02T03:14:07.491Z,4.51
2023-03-02T03:16:37.123Z,4.48
2023-03-02T03:19:10.897Z,4.33
2023-03-02T03:21:38.934Z,4.28
2023-03-02T03:24:08.448Z,4.25
2023-03-02T03:26:38.283Z,4.16
2023-03-02T03:29:07.458Z,4.06
2023-03-02T03:31:36.273Z,3.94
2023-03-02T03:34:05.895Z,3.86
2023-03-02T03:36:37.554Z,3.74
2023-03-02T03:39:06.968Z,3.71
2023-03-02T03:41:35.206Z,3.59
2023-03-02T03:44:05.279Z,3.58
2023-03-02T03:46:36.417Z,3.51
2023-03-02T03:49:05.533Z,3.47
2023-03-02T03:51:35.394Z,3.45
2023-03-02T03:54:08.218Z,3.48
2023-03-02T03:56:42.310Z,3.39
2023-03-02T03:59:15.809Z,3.45
2023-03-02T04:01:53.463Z,3.45
2023-03-02T04:04:24.466Z,3.39
2023-03-02T04:06:53.229Z,3.40
2023-03-02T04:09:22.610Z,3.36
2023-03-02T04:11:52.272Z,3.38
2023-03-02T04:14:23.862Z,3.37
2023-03-02T04:16:53.392Z,3.36
2023-03-02T04:19:24.234Z,3.16
2023-03-02T04:21:56.912Z,3.30
2023-03-02T04:24:25.644Z,3.32
2023-03-02T04:26:56.945Z,3.29
2023-03-02T04:29:27.231Z,3.25
2023-03-02T04:31:55.661Z,3.22
2023-03-02T04:34:26.445Z,3.19
2023-03-02T04:36:54.620Z,3.12
2023-03-02T04:39:23.563Z,3.18
2023-03-02T04:41:53.973Z,3.15
2023-03-02T04:44:22.577Z,3.09
2023-03-02T04:46:52.044Z,3.13
2023-03-02T04:49:21.129Z,3.06
2023-03-02T04:51:50.337Z,3.01
2023-03-02T04:54:20.766Z,3.10
2023-03-02T04:56:49.502Z,3.20
2023-03-02T04:59:17.930Z,3.17
2023-03-02T05:01:46.013Z,3.20
2023-03-02T05:04:16.021Z,3.21
2023-03-02T05:06:44.137Z,3.34
2023-03-02T05:09:12.374Z,3.38
2023-03-02T05:11:40.835Z,3.37
2023-03-02T05:14:10.834Z,3.30
2023-03-02T05:16:40.517Z,3.30
2023-03-02T05:19:10.723Z,3.30
2023-03-02T05:21:40.166Z,3.26
2023-03-02T05:24:08.495Z,3.19
2023-03-02T05:26:36.504Z,3.22
2023-03-02T05:29:05.105Z,3.26
2023-03-02T05:31:35.973Z,3.31
2023-03-02T05:34:05.547Z,3.25
2023-03-02T05:36:34.209Z,3.20
2023-03-02T05:39:05.034Z,3.24
2023-03-02T05:41:33.228Z,3.18
2023-03-02T05:44:01.608Z,3.07
2023-03-02T05:46:29.893Z,3.04
2023-03-02T05:48:58.202Z,2.98
2023-03-02T05:51:26.190Z,3.01
2023-03-02T05:53:54.549Z,3.01
2023-03-02T05:56:23.810Z,2.97
2023-03-02T05:58:52.085Z,2.93
2023-03-02T06:01:20.129Z,2.95
2023-03-02T06:03:48.396Z,2.94
2023-03-02T06:06:16.488Z,2.91
2023-03-02T06:08:47.157Z,2.93
2023-03-02T06:11:15.649Z,2.85
2023-03-02T06:13:45.304Z,2.75
2023-03-02T06:16:13.376Z,2.91
2023-03-02T06:18:41.874Z,2.91
2023-03-02T06:21:10.129Z,2.91
2023-03-02T06:23:38.388Z,2.86
2023-03-02T06:26:09.175Z,2.91
2023-03-02T06:28:49.744Z,2.94
2023-03-02T06:31:20.747Z,3.08
2023-03-02T06:33:49.110Z,3.04
2023-03-02T06:36:17.584Z,2.89
2023-03-02T06:38:46.160Z,2.84
2023-03-02T06:41:14.193Z,2.92
2023-03-02T06:43:42.719Z,3.14
2023-03-02T06:46:10.782Z,3.20
2023-03-02T06:48:40.542Z,3.19
2023-03-02T06:51:09.008Z,3.22
2023-03-02T06:53:37.335Z,3.15
2023-03-02T06:56:06.245Z,3.10
2023-03-02T06:58:34.531Z,3.26
2023-03-02T07:01:02.584Z,3.28
2023-03-02T07:03:30.952Z,3.37
2023-03-02T07:06:00.549Z,3.32
2023-03-02T07:08:28.907Z,3.45
2023-03-02T07:10:56.936Z,3.43
2023-03-02T07:13:25.383Z,3.51
2023-03-02T07:15:54.804Z,3.49
2023-03-02T07:18:23.193Z,3.60
2023-03-02T07:20:51.294Z,3.60
2023-03-02T07:23:21.545Z,3.63
2023-03-02T07:25:49.594Z,3.60
2023-03-02T07:28:17.890Z,3.47
2023-03-02T07:30:45.969Z,3.57
2023-03-02T07:33:14.380Z,3.64
2023-03-02T07:35:42.543Z,3.68
2023-03-02T07:38:10.806Z,3.65
2023-03-02T07:40:42.572Z,3.69
2023-03-02T07:43:11.340Z,3.70
2023-03-02T07:45:39.449Z,3.71
2023-03-02T07:48:07.975Z,3.77
2023-03-02T07:50:36.208Z,3.86
2023-03-02T07:53:04.577Z,3.76
2023-03-02T07:55:32.666Z,3.81
2023-03-02T07:58:02.315Z,4.00
2023-03-02T08:00:30.393Z,4.12
2023-03-02T08:02:58.849Z,4.19
2023-03-02T08:05:27.137Z,4.04
2023-03-02T08:07:55.430Z,4.16
2023-03-02T08:10:23.967Z,4.01
2023-03-02T08:12:52.305Z,4.19
2023-03-02T08:15:21.770Z,4.48
2023-03-02T08:17:50.057Z,4.62
2023-03-02T08:20:18.197Z,4.99
2023-03-02T08:22:46.429Z,5.22
2023-03-02T08:25:14.531Z,5.26
2023-03-02T08:27:42.789Z,5.47
2023-03-02T08:30:12.490Z,5.51
2023-03-02T08:32:42.364Z,5.42
2023-03-02T08:35:10.838Z,5.41
2023-03-02T08:37:39.188Z,5.53
2023-03-02T08:40:09.009Z,5.91
2023-03-02T08:42:37.305Z,5.82
2023-03-02T08:45:06.667Z,5.94
2023-03-02T08:47:35.026Z,6.03
2023-03-02T08:50:04.875Z,5.90
2023-03-02T08:52:33.985Z,5.96
2023-03-02T08:55:03.726Z,6.14
2023-03-02T08:57:32.472Z,6.41
2023-03-02T09:00:00.695Z,6.48
2023-03-02T09:02:29.011Z,6.61
2023-03-02T09:04:57.098Z,6.67
2023-03-02T09:07:26.724Z,6.69
2023-03-02T09:09:54.746Z,6.70
2023-03-02T09:12:23.080Z,6.78
2023-03-02T09:14:51.230Z,6.88
2023-03-02T09:17:19.480Z,6.93
2023-03-02T09:19:47.668Z,6.95
2023-03-02T09:22:15.941Z,7.06
2023-03-02T09:24:45.363Z,7.10
2023-03-02T09:27:13.809Z,7.05
2023-03-02T09:29:42.065Z,7.21
2023-03-02T09:32:10.936Z,7.22
2023-03-02T09:34:39.297Z,7.18
2023-03-02T09:37:07.546Z,7.23
2023-03-02T09:39:35.677Z,7.21
2023-03-02T09:42:13.775Z,7.34
2023-03-02T09:44:50.047Z,7.37
2023-03-02T09:47:34.891Z,7.34
2023-03-02T09:50:12.201Z,7.36
2023-03-02T09:52:42.319Z,7.44
2023-03-02T09:55:15.042Z,7.49
2023-03-02T09:57:46.249Z,7.58
2023-03-02T10:00:19.905Z,7.65
2023-03-02T10:02:50.449Z,7.75
2023-03-02T10:05:22.843Z,7.85
2023-03-02T10:07:51.306Z,7.89
2023-03-02T10:10:25.849Z,7.99
2023-03-02T10:13:04.142Z,8.02
2023-03-02T10:15:37.688Z,8.10
2023-03-02T10:18:14.878Z,8.21
2023-03-02T10:20:47.257Z,8.28
2023-03-02T10:23:38.226Z,8.36
2023-03-02T10:26:14.690Z,8.46
2023-03-02T10:28:49.306Z,8.51
2023-03-02T10:31:22.643Z,8.48
2023-03-02T10:33:50.984Z,8.57
2023-03-02T10:36:24.041Z,8.62
2023-03-02T10:38:53.174Z,8.81
2023-03-02T10:41:24.445Z,8.84
2023-03-02T10:43:57.133Z,8.99
2023-03-02T10:46:25.243Z,9.10
2023-03-02T10:48:56.162Z,9.14
2023-03-02T10:51:26.942Z,9.23
2023-03-02T10:54:06.321Z,9.34
2023-03-02T10:56:35.197Z,9.40
2023-03-02T10:59:32.058Z,9.48
2023-03-02T11:02:02.455Z,9.43
2023-03-02T11:04:31.111Z,9.69
2023-03-02T11:07:08.934Z,9.68
2023-03-02T11:09:37.204Z,9.84
2023-03-02T11:12:05.696Z,9.88
2023-03-02T11:14:35.436Z,9.88
2023-03-02T11:17:03.707Z,10.02
2023-03-02T11:19:35.849Z,10.01
2023-03-02T11:22:07.522Z,10.15
2023-03-02T11:24:40.289Z,10.26
2023-03-02T11:27:13.916Z,10.47
2023-03-02T11:29:46.642Z,10.56
2023-03-02T11:32:18.547Z,10.65
2023-03-02T11:34:50.594Z,10.72
2023-03-02T11:37:21.467Z,10.81
2023-03-02T11:40:06.248Z,11.06
2023-03-02T11:42:36.284Z,11.18
2023-03-02T11:45:17.945Z,11.28
2023-03-02T11:47:54.174Z,11.40
2023-03-02T11:50:26.930Z,11.57
2023-03-02T11:52:58.995Z,11.64
2023-03-02T11:55:28.819Z,11.84
2023-03-02T12:00:36.101Z,11.70
2023-03-02T12:03:05.717Z,11.99
2023-03-02T12:05:39.682Z,12.22
2023-03-02T12:08:14.577Z,12.43
2023-03-02T12:10:45.417Z,12.49
2023-03-02T12:13:18.839Z,12.83
2023-03-02T12:15:50.601Z,13.11
2023-03-02T12:18:55.344Z,13.53
2023-03-02T12:21:25.050Z,13.59
2023-03-02T12:23:59.410Z,14.46
2023-03-02T12:26:36.547Z,15.14
2023-03-02T12:29:24.062Z,16.13
2023-03-02T12:31:55.337Z,16.29
2023-03-02T12:34:33.935Z,16.30
2023-03-02T12:37:50.068Z,17.65
2023-03-02T12:40:34.561Z,17.90
2023-03-02T12:43:19.587Z,18.79
2023-03-02T12:46:00.835Z,19.50
2023-03-02T12:48:32.406Z,20.09
2023-03-02T12:51:02.832Z,20.55
2023-03-02T12:53:31.908Z,20.89
2023-03-02T12:56:00.595Z,21.68
2023-03-02T12:58:30.112Z,22.39
2023-03-02T13:00:59.572Z,22.39
2023-03-02T13:03:31.435Z,22.40
2023-03-02T13:06:04.171Z,23.58
2023-03-02T13:08:33.565Z,23.72
2023-03-02T13:11:02.603Z,23.33
2023-03-02T13:13:37.060Z,23.41
2023-03-02T13:16:08.093Z,23.54
2023-03-02T13:18:39.604Z,22.91
2023-03-02T13:21:07.918Z,22.45
2023-03-02T13:23:36.183Z,22.14
2023-03-02T13:26:06.314Z,22.14
2023-03-02T13:28:35.821Z,23.15
2023-03-02T13:31:07.540Z,24.20
2023-03-02T13:33:44.973Z,23.39
2023-03-02T13:36:18.908Z,23.80
2023-03-02T13:38:49.520Z,24.43
2023-03-02T13:41:23.145Z,25.12
2023-03-02T13:43:51.493Z,24.33
2023-03-02T13:46:28.762Z,24.15
2023-03-02T13:49:09.667Z,24.28
2023-03-02T13:51:41.124Z,24.91
2023-03-02T13:54:18.022Z,25.01
2023-03-02T13:56:46.135Z,24.88
2023-03-02T13:59:16.280Z,24.23
2023-03-02T14:01:44.773Z,25.38
2023-03-02T14:04:16.491Z,25.41
2023-03-02T14:06:44.747Z,24.86
2023-03-02T14:09:13.032Z,25.48
2023-03-02T14:11:43.382Z,25.42
2023-03-02T14:14:14.741Z,26.13
2023-03-02T14:16:42.920Z,26.49
2023-03-02T14:19:13.446Z,27.41
2023-03-02T14:21:44.246Z,27.86
2023-03-02T14:24:12.745Z,27.41
2023-03-02T14:26:43.485Z,26.31
2023-03-02T14:29:21.030Z,26.93
2023-03-02T14:31:49.322Z,27.30
2023-03-02T14:34:18.562Z,27.94
2023-03-02T14:36:49.522Z,28.47
2023-03-02T14:39:22.206Z,27.56
2023-03-02T14:41:53.825Z,27.80
2023-03-02T14:44:23.037Z,28.57
2023-03-02T14:46:51.313Z,28.89
2023-03-02T14:49:20.171Z,29.02
2023-03-02T14:51:55.863Z,29.01
2023-03-02T14:54:24.195Z,27.98
2023-03-02T14:56:52.875Z,28.48
2023-03-02T14:59:21.296Z,28.71
2023-03-02T15:01:49.363Z,29.06
2023-03-02T15:04:17.709Z,29.19
2023-03-02T15:06:47.152Z,29.16
2023-03-02T15:09:16.811Z,29.22
2023-03-02T15:11:45.120Z,27.98
2023-03-02T15:14:13.417Z,27.87
2023-03-02T15:16:42.692Z,28.30
2023-03-02T15:19:11.075Z,28.36
2023-03-02T15:21:44.551Z,28.72
2023-03-02T15:24:13.279Z,28.38
2023-03-02T15:26:42.681Z,28.51
2023-03-02T15:29:11.003Z,28.42
2023-03-02T15:31:39.042Z,28.31
2023-03-02T15:34:07.660Z,28.44
2023-03-02T15:36:35.688Z,28.17
2023-03-02T15:39:04.940Z,28.13
2023-03-02T15:41:33.435Z,27.77
2023-03-02T15:44:03.311Z,27.40
2023-03-02T15:46:31.434Z,27.07
2023-03-02T15:48:59.722Z,26.73
2023-03-02T15:51:27.703Z,26.04
2023-03-02T15:53:55.984Z,26.22
2023-03-02T15:56:28.356Z,25.96
2023-03-02T15:58:58.723Z,25.76
2023-03-02T16:01:28.104Z,25.56
2023-03-02T16:03:59.756Z,25.40
2023-03-02T16:06:28.469Z,25.18
2023-03-02T16:08:56.857Z,23.06
2023-03-02T16:11:24.883Z,22.79
2023-03-02T16:13:53.749Z,22.58
2023-03-02T16:16:22.334Z,22.84
2023-03-02T16:18:52.317Z,22.13
2023-03-02T16:21:20.574Z,21.59
2023-03-02T16:23:48.956Z,21.42
2023-03-02T16:26:19.199Z,21.40
2023-03-02T16:28:47.779Z,21.15
2023-03-02T16:31:18.409Z,20.13
2023-03-02T16:33:47.905Z,20.31
2023-03-02T16:36:17.262Z,19.58
2023-03-02T16:38:45.769Z,18.91
2023-03-02T16:41:15.706Z,18.68
2023-03-02T16:43:46.129Z,18.51
2023-03-02T16:46:14.555Z,17.76
2023-03-02T16:48:43.538Z,17.39
2023-03-02T16:51:11.678Z,17.09
2023-03-02T16:53:41.663Z,17.03
2023-03-02T16:56:10.572Z,16.55
2023-03-02T16:58:39.709Z,16.43
2023-03-02T17:01:08.690Z,16.29
2023-03-02T17:03:37.306Z,16.14
2023-03-02T17:06:06.424Z,15.91
2023-03-02T17:08:34.893Z,15.76
2023-03-02T17:11:04.467Z,15.59
2023-03-02T17:13:32.901Z,15.58
2023-03-02T17:16:01.235Z,15.44
2023-03-02T17:18:30.726Z,15.23
2023-03-02T17:20:59.949Z,15.15
2023-03-02T17:23:28.829Z,15.07
2023-03-02T17:25:56.989Z,14.60
2023-03-02T17:28:26.626Z,14.28
2023-03-02T17:30:54.837Z,13.88
2023-03-02T17:33:23.388Z,13.98
2023-03-02T17:35:52.045Z,14.02
2023-03-02T17:38:20.454Z,13.91
2023-03-02T17:40:48.715Z,13.88
2023-03-02T17:43:17.030Z,13.84
2023-03-02T17:45:46.718Z,13.74
2023-03-02T17:48:15.116Z,13.64
2023-03-02T17:50:43.340Z,13.54
2023-03-02T17:53:11.697Z,13.46
2023-03-02T17:55:39.976Z,13.71
2023-03-02T17:58:08.331Z,13.44
2023-03-02T18:00:36.386Z,13.22
2023-03-02T18:03:06.174Z,13.00
2023-03-02T18:05:34.284Z,12.76
2023-03-02T18:08:02.628Z,12.44
2023-03-02T18:10:30.811Z,12.35
2023-03-02T18:12:59.182Z,12.28
2023-03-02T18:15:29.013Z,12.23
2023-03-02T18:17:57.316Z,12.14
2023-03-02T18:20:34.402Z,12.22
2023-03-02T18:23:03.204Z,12.01
2023-03-02T18:25:31.765Z,11.94
2023-03-02T18:28:00.138Z,11.86
2023-03-02T18:30:28.426Z,11.77
2023-03-02T18:32:56.734Z,11.71
2023-03-02T18:35:26.334Z,11.55
2023-03-02T18:37:54.688Z,11.49
2023-03-02T18:40:22.807Z,11.41
2023-03-02T18:42:51.147Z,11.38
2023-03-02T18:45:24.430Z,11.30
2023-03-02T18:47:53.143Z,11.27
2023-03-02T18:50:21.384Z,11.19
2023-03-02T18:52:52.809Z,11.10
2023-03-02T18:55:21.523Z,11.10
2023-03-02T18:57:50.009Z,11.06
2023-03-02T19:00:21.569Z,10.99
2023-03-02T19:02:49.932Z,11.01
2023-03-02T19:05:19.338Z,11.05
2023-03-02T19:07:47.951Z,11.01
2023-03-02T19:10:17.624Z,10.93
2023-03-02T19:12:46.345Z,10.88
2023-03-02T19:15:14.458Z,10.82
2023-03-02T19:17:43.611Z,10.89
2023-03-02T19:20:14.613Z,11.05
2023-03-02T19:22:43.063Z,10.84
2023-03-02T19:25:11.544Z,10.72
2023-03-02T19:27:41.641Z,10.36
2023-03-02T19:30:13.921Z,10.25
2023-03-02T19:32:42.304Z,9.99
2023-03-02T19:35:12.632Z,9.95
2023-03-02T19:37:41.145Z,9.87
2023-03-02T19:40:10.716Z,9.78
2023-03-02T19:42:40.026Z,9.57
2023-03-02T19:45:13.351Z,9.56
2023-03-02T19:47:41.615Z,9.69
2023-03-02T19:50:10.969Z,9.57
2023-03-02T19:52:40.106Z,9.57
2023-03-02T19:55:10.445Z,9.58
2023-03-02T19:57:39.871Z,9.54
2023-03-02T20:00:15.135Z,9.46
2023-03-02T20:02:45.037Z,9.52
2023-03-02T20:05:13.198Z,9.45
2023-03-02T20:07:42.131Z,9.33
2023-03-02T20:10:12.128Z,9.29
2023-03-02T20:12:40.440Z,9.27
2023-03-02T20:15:10.916Z,9.30
2023-03-02T20:17:39.241Z,9.24
2023-03-02T20:20:08.354Z,9.14
2023-03-02T20:22:37.000Z,9.05
2023-03-02T20:25:06.018Z,8.97
2023-03-02T20:27:34.418Z,8.88
2023-03-02T20:30:02.748Z,8.82
2023-03-02T20:32:32.499Z,8.75
2023-03-02T20:35:00.943Z,8.71
2023-03-02T20:37:29.969Z,8.67
2023-03-02T20:39:58.224Z,8.64
2023-03-02T20:42:27.402Z,8.69
2023-03-02T20:44:56.348Z,8.62
2023-03-02T20:47:24.979Z,8.63
2023-03-02T20:49:55.462Z,8.64
2023-03-02T20:52:23.965Z,8.46
2023-03-02T20:54:51.976Z,8.49
2023-03-02T20:57:21.900Z,8.47
2023-03-02T20:59:50.074Z,8.34
2023-03-02T21:02:20.063Z,8.34
2023-03-02T21:04:48.348Z,8.36
2023-03-02T21:07:18.108Z,8.39
2023-03-02T21:09:46.415Z,8.37
2023-03-02T21:12:14.870Z,8.28
2023-03-02T21:14:43.242Z,8.20
2023-03-02T21:17:11.613Z,8.20
2023-03-02T21:19:39.709Z,8.10
2023-03-02T21:22:08.069Z,8.04
2023-03-02T21:24:37.475Z,8.07
2023-03-02T21:27:07.264Z,8.14
2023-03-02T21:29:38.444Z,8.09
2023-03-02T21:32:08.007Z,7.93
2023-03-02T21:34:38.383Z,7.83
2023-03-02T21:37:07.047Z,7.77
2023-03-02T21:39:35.148Z,7.52
2023-03-02T21:42:05.159Z,7.33
2023-03-02T21:44:33.320Z,7.18
2023-03-02T21:47:01.819Z,7.17
2023-03-02T21:49:30.159Z,7.08
2023-03-02T21:51:58.561Z,7.06
2023-03-02T21:54:26.680Z,7.10
2023-03-02T21:56:55.026Z,6.90
2023-03-02T21:59:24.436Z,6.89
2023-03-02T22:01:52.877Z,7.06
2023-03-02T22:04:21.061Z,7.11
2023-03-02T22:06:49.533Z,7.15
2023-03-02T22:09:17.677Z,7.21
2023-03-02T22:11:46.344Z,7.30
2023-03-02T22:14:16.024Z,7.28
2023-03-02T22:16:47.994Z,7.25
2023-03-02T22:19:25.578Z,7.31
2023-03-02T22:21:54.714Z,7.24
2023-03-02T22:24:24.847Z,7.22
2023-03-02T22:27:00.096Z,7.32
2023-03-02T22:29:29.934Z,7.44
2023-03-02T22:32:07.739Z,7.23
2023-03-02T22:34:36.942Z,7.12
2023-03-02T22:37:11.558Z,7.17
2023-03-02T22:39:42.071Z,7.15
2023-03-02T22:42:13.606Z,7.01
2023-03-02T22:44:42.025Z,7.01
2023-03-02T22:47:16.514Z,6.88
2023-03-02T22:49:44.787Z,6.76
2023-03-02T22:52:15.497Z,6.64
2023-03-02T22:54:43.592Z,6.63
2023-03-02T22:57:28.994Z,6.55
2023-03-02T23:00:38.694Z,6.55
2023-03-02T23:03:17.443Z,6.59
2023-03-02T23:05:48.907Z,6.63
2023-03-02T23:08:21.353Z,6.59
2023-03-02T23:10:51.718Z,6.53
2023-03-02T23:13:21.782Z,6.55
2023-03-02T23:15:50.669Z,6.54
2023-03-02T23:18:24.098Z,6.59
2023-03-02T23:20:52.701Z,6.54
2023-03-02T23:23:22.734Z,6.49
2023-03-02T23:25:51.197Z,6.53
2023-03-02T23:28:19.545Z,6.46
2023-03-02T23:30:47.597Z,6.36
2023-03-02T23:33:15.861Z,6.35
2023-03-02T23:35:46.395Z,6.37
2023-03-02T23:38:14.606Z,6.31
2023-03-02T23:40:42.648Z,6.36
2023-03-02T23:43:10.902Z,6.34
2023-03-02T23:45:39.850Z,6.40
2023-03-02T23:48:08.228Z,6.25
2023-03-02T23:50:36.300Z,6.13
2023-03-02T23:53:05.932Z,6.11
2023-03-02T23:55:44.798Z,6.05
